Time;durP1;ratioP1;P1;durP2;ratioP2;P2;SDS_P1;SDS_P2;PMS_P1;PMS_P2;Temp;Humidity;BMP_temperature;BMP_pressure;BME280_temperature;BME280_humidity;BME280_pressure;Samples;Min_cycle;Max_cycle;Signal;HPM_P1;HPM_P2
2023/06/12 00:00:30;;;;;;;3.80;2.20;;;;;;;12.24;78.98;99510.48;107266;1253;60466;-39
2023/06/12 00:02:58;;;;;;;4.90;2.30;;;;;;;12.22;79.18;99511.61;107487;1253;61029;-39
2023/06/12 00:05:27;;;;;;;6.70;2.80;;;;;;;12.22;79.45;99509.13;107461;1254;72930;-39
2023/06/12 00:07:57;;;;;;;8.00;2.20;;;;;;;12.22;79.40;99505.49;107478;1253;65938;-39
2023/06/12 00:10:25;;;;;;;4.30;2.10;;;;;;;12.26;79.32;99501.50;107463;1253;70554;-39
2023/06/12 00:12:52;;;;;;;5.90;2.40;;;;;;;12.30;79.01;99503.42;107490;1255;60617;-39
2023/06/12 00:15:20;;;;;;;8.90;2.10;;;;;;;12.31;79.02;99503.52;107478;1253;60288;-40
2023/06/12 00:17:48;;;;;;;3.40;2.30;;;;;;;12.31;78.91;99497.30;107474;1253;72679;-39
2023/06/12 00:20:16;;;;;;;2.80;2.10;;;;;;;12.26;78.89;99497.85;107472;1253;67585;-39
2023/06/12 00:22:44;;;;;;;4.10;2.20;;;;;;;12.25;78.69;99499.16;107498;1254;72656;-39
2023/06/12 00:25:11;;;;;;;6.30;2.20;;;;;;;12.29;78.50;99499.84;107437;1258;60469;-39
2023/06/12 00:27:39;;;;;;;7.10;2.20;;;;;;;12.30;78.69;99503.03;107503;1253;60038;-39
2023/06/12 00:30:08;;;;;;;4.30;2.20;;;;;;;12.29;78.79;99503.19;107491;1253;73855;-39
2023/06/12 00:32:35;;;;;;;6.50;2.40;;;;;;;12.29;78.99;99503.25;107501;1253;66359;-39
2023/06/12 00:35:04;;;;;;;3.20;2.20;;;;;;;12.31;78.73;99500.72;107435;1254;71448;-39
2023/06/12 00:37:32;;;;;;;2.60;2.00;;;;;;;12.30;78.46;99499.54;107370;1260;60567;-39
2023/06/12 00:40:00;;;;;;;4.10;2.10;;;;;;;12.29;78.61;99498.44;107525;1253;60329;-40
2023/06/12 00:42:33;;;;;;;4.10;2.30;;;;;;;12.31;78.86;99497.92;107533;1255;73852;-39
2023/06/12 00:45:00;;;;;;;4.00;2.00;;;;;;;12.33;78.75;99492.05;107540;1253;66943;-39
2023/06/12 00:47:28;;;;;;;2.80;2.00;;;;;;;12.36;78.52;99494.11;107481;1253;72722;-39
2023/06/12 00:49:58;;;;;;;9.40;2.20;;;;;;;12.37;78.20;99495.98;107418;1253;60417;-39
2023/06/12 00:52:29;;;;;;;5.50;2.40;;;;;;;12.35;78.16;99494.88;107449;1253;60016;-40
2023/06/12 00:54:56;;;;;;;4.60;2.30;;;;;;;12.31;78.32;99491.17;107462;1253;72819;-40
2023/06/12 00:57:24;;;;;;;8.00;2.20;;;;;;;12.33;78.56;99490.80;107350;1253;66289;-45
2023/06/12 00:59:53;;;;;;;7.10;2.20;;;;;;;12.38;78.31;99485.13;107424;1253;72748;-39
2023/06/12 01:02:22;;;;;;;6.20;1.90;;;;;;;12.36;78.08;99479.89;107476;1253;60531;-41
2023/06/12 01:04:55;;;;;;;5.80;2.30;;;;;;;12.32;77.99;99479.70;107262;1253;60319;-39
2023/06/12 01:07:29;;;;;;;;;;;;;;;12.29;78.31;99484.61;107482;1253;73828;-39
2023/06/12 01:10:20;;;;;;;4.20;2.20;;;;;;;12.32;78.59;99479.69;107330;1253;67558;-39
2023/06/12 01:12:47;;;;;;;;;;;;;;;12.39;78.47;99481.96;107267;1256;71710;-39
2023/06/12 01:15:15;;;;;;;4.00;2.20;;;;;;;12.36;78.61;99475.55;107326;1256;60533;-39
2023/06/12 01:17:43;;;;;;;4.60;2.00;;;;;;;12.31;78.84;99478.36;107416;1258;60482;-39
2023/06/12 01:20:11;;;;;;;5.00;2.00;;;;;;;12.33;79.00;99476.13;107487;1253;73841;-40
2023/06/12 01:22:42;;;;;;;2.90;2.10;;;;;;;12.34;78.59;99479.80;107497;1253;67669;-39
2023/06/12 01:25:42;;;;;;;3.70;2.20;;;;;;;12.37;78.69;99477.27;107435;1253;71410;-39
2023/06/12 01:28:37;;;;;;;3.80;2.50;;;;;;;12.41;78.92;99476.94;107185;1253;60490;-39
2023/06/12 01:31:08;;;;;;;5.70;2.20;;;;;;;12.41;78.65;99479.34;107504;1257;59675;-39
2023/06/12 01:33:38;;;;;;;8.10;2.10;;;;;;;12.40;78.62;99477.93;107335;1251;72565;-39
2023/06/12 01:36:07;;;;;;;;;;;;;;;12.46;78.38;99477.30;107489;1251;67598;-39
2023/06/12 01:38:34;;;;;;;7.50;2.40;;;;;;;12.50;78.31;99476.58;107283;1253;72739;-39
2023/06/12 01:41:04;;;;;;;5.20;2.20;;;;;;;12.50;78.14;99476.73;107393;1253;60466;-39
2023/06/12 01:43:32;;;;;;;3.30;2.40;;;;;;;12.52;77.90;99475.68;107474;1253;60586;-39
2023/06/12 01:46:00;;;;;;;5.10;2.20;;;;;;;12.52;77.86;99471.33;107398;1252;73887;-39
2023/06/12 01:48:27;;;;;;;5.20;2.20;;;;;;;12.54;77.89;99470.42;107637;1252;67600;-39
2023/06/12 01:50:55;;;;;;;12.20;2.50;;;;;;;12.60;77.84;99471.67;107604;1253;72722;-39
2023/06/12 01:53:24;;;;;;;7.70;2.20;;;;;;;12.63;77.96;99469.83;107388;1251;60235;-39
2023/06/12 01:55:53;;;;;;;5.00;2.40;;;;;;;12.63;77.82;99465.17;107613;1253;60396;-39
2023/06/12 01:58:25;;;;;;;4.90;2.10;;;;;;;12.61;77.49;99463.37;107473;1252;73847;-40
2023/06/12 02:01:06;;;;;;;7.10;2.40;;;;;;;12.58;77.53;99464.10;107487;1253;66364;-39
2023/06/12 02:03:36;;;;;;;6.70;2.20;;;;;;;12.61;77.48;99463.67;107430;1256;71395;-39
2023/06/12 02:06:04;;;;;;;;;;;;;;;12.62;77.50;99463.14;107509;1254;61099;-39
2023/06/12 02:08:32;;;;;;;8.00;2.70;;;;;;;12.56;77.52;99456.92;107484;1253;60322;-39
2023/06/12 02:11:00;;;;;;;4.90;2.20;;;;;;;12.52;77.74;99459.21;107358;1252;73976;-39
2023/06/12 02:13:30;;;;;;;5.10;2.20;;;;;;;12.55;77.42;99458.95;107455;1253;66712;-38
2023/06/12 02:15:58;;;;;;;2.90;2.00;;;;;;;12.59;77.22;99458.29;107434;1253;71379;-39
2023/06/12 02:18:30;;;;;;;4.00;2.20;;;;;;;12.58;77.25;99454.70;107365;1253;60422;-39
2023/06/12 02:20:58;;;;;;;7.80;2.10;;;;;;;12.58;77.36;99455.56;107198;1253;60585;-38
2023/06/12 02:23:26;;;;;;;6.70;2.10;;;;;;;12.56;77.28;99457.33;107470;1257;72617;-39
2023/06/12 02:25:54;;;;;;;3.60;2.00;;;;;;;12.53;76.68;99458.52;107424;1253;66352;-39
2023/06/12 02:28:21;;;;;;;3.70;1.80;;;;;;;12.52;76.49;99462.40;107463;1253;72655;-39
2023/06/12 02:30:49;;;;;;;4.00;2.30;;;;;;;12.50;76.53;99459.80;107456;1258;60335;-40
2023/06/12 02:33:17;;;;;;;3.50;2.10;;;;;;;12.50;76.91;99458.56;107390;1254;60381;-39
2023/06/12 02:35:45;;;;;;;3.40;1.80;;;;;;;12.50;77.20;99457.09;107327;1253;73895;-39
2023/06/12 02:38:13;;;;;;;6.80;2.20;;;;;;;12.51;76.65;99456.55;107316;1253;66266;-39
2023/06/12 02:40:41;;;;;;;3.90;2.30;;;;;;;12.51;76.10;99456.39;107385;1253;71382;-39
2023/06/12 02:43:09;;;;;;;5.40;2.40;;;;;;;12.44;75.96;99454.21;107406;1253;60399;-39
2023/06/12 02:45:37;;;;;;;3.60;2.00;;;;;;;12.39;75.71;99455.77;107231;1253;59295;-39
2023/06/12 02:48:05;;;;;;;5.10;1.80;;;;;;;12.37;75.75;99455.05;107468;1253;72665;-39
2023/06/12 02:50:34;;;;;;;4.90;2.10;;;;;;;12.39;76.21;99452.13;107530;1253;65344;-39
2023/06/12 02:53:04;;;;;;;5.90;1.80;;;;;;;12.39;76.18;99450.27;107492;1257;72673;-39
2023/06/12 02:55:32;;;;;;;6.50;2.00;;;;;;;12.35;76.06;99449.58;107482;1254;59595;-39
2023/06/12 02:58:01;;;;;;;3.60;1.90;;;;;;;12.30;76.19;99451.77;107318;1253;60282;-39
2023/06/12 03:00:29;;;;;;;4.70;2.30;;;;;;;12.30;76.21;99451.39;107434;1254;72670;-39
2023/06/12 03:02:57;;;;;;;5.30;1.90;;;;;;;12.35;76.11;99448.67;107510;1253;66406;-39
2023/06/12 03:05:26;;;;;;;4.00;1.90;;;;;;;12.36;75.61;99447.20;107531;1253;71391;-39
2023/06/12 03:07:55;;;;;;;5.90;2.10;;;;;;;12.33;75.17;99443.36;107439;1258;60470;-39
2023/06/12 03:10:23;;;;;;;5.20;2.00;;;;;;;12.29;75.64;99443.84;107482;1253;60031;-39
2023/06/12 03:12:50;;;;;;;4.70;1.80;;;;;;;12.30;75.86;99443.45;107508;1254;73891;-39
2023/06/12 03:15:18;;;;;;;6.20;1.90;;;;;;;12.35;75.77;99444.77;107274;1253;67912;-39
2023/06/12 03:17:46;;;;;;;4.90;2.10;;;;;;;12.37;75.48;99446.13;107293;1258;72671;-39
2023/06/12 03:20:14;;;;;;;6.60;2.20;;;;;;;12.37;75.47;99446.13;107448;1253;59544;-39
2023/06/12 03:22:42;;;;;;;4.40;2.10;;;;;;;12.36;75.21;99446.25;107459;1253;60374;-39
2023/06/12 03:25:10;;;;;;;4.30;2.00;;;;;;;12.35;75.16;99446.95;107227;1253;72575;-39
2023/06/12 03:27:38;;;;;;;8.40;2.30;;;;;;;12.38;75.04;99446.59;107241;1253;66816;-39
2023/06/12 03:30:08;;;;;;;6.20;2.40;;;;;;;12.39;74.99;99449.34;107314;1253;72730;-39
2023/06/12 03:32:37;;;;;;;4.10;2.00;;;;;;;12.39;75.02;99449.16;107385;1253;60494;-39
2023/06/12 03:35:05;;;;;;;3.60;1.80;;;;;;;12.37;74.91;99448.23;107374;1253;60357;-40
2023/06/12 03:37:36;;;;;;;4.60;2.10;;;;;;;12.39;74.66;99441.33;107424;1253;72585;-39
2023/06/12 03:40:07;;;;;;;6.60;2.10;;;;;;;12.45;74.77;99444.99;107122;1253;67526;-39
2023/06/12 03:42:37;;;;;;;4.90;1.80;;;;;;;12.50;75.02;99444.04;107433;1253;71403;-40
2023/06/12 03:45:06;;;;;;;4.60;2.00;;;;;;;12.54;74.94;99439.41;107333;1253;59615;-39
2023/06/12 03:47:34;;;;;;;4.40;2.10;;;;;;;12.59;74.96;99439.55;107321;1253;60295;-39
2023/06/12 03:50:07;;;;;;;5.00;2.20;;;;;;;12.65;74.23;99439.16;107424;1253;73939;-39
2023/06/12 03:52:35;;;;;;;3.30;2.00;;;;;;;12.70;74.15;99440.92;107235;1260;66324;-39
2023/06/12 03:55:03;;;;;;;3.10;2.00;;;;;;;12.72;73.61;99445.92;107448;1253;72765;-39
2023/06/12 03:57:31;;;;;;;2.50;1.80;;;;;;;12.71;73.59;99441.80;107304;1253;60323;-38
2023/06/12 03:59:58;;;;;;;4.10;1.90;;;;;;;12.73;73.48;99448.35;107383;1253;60417;-39
2023/06/12 04:02:26;;;;;;;6.30;2.20;;;;;;;12.77;73.51;99452.91;107254;1252;73872;-41
2023/06/12 04:04:54;;;;;;;6.90;2.10;;;;;;;12.83;73.16;99454.38;107474;1253;67881;-39
2023/06/12 04:07:23;;;;;;;4.50;1.90;;;;;;;12.86;73.02;99451.23;107481;1257;71379;-40
2023/06/12 04:09:50;;;;;;;4.90;2.20;;;;;;;12.86;72.75;99452.23;107424;1253;60441;-40
2023/06/12 04:12:18;;;;;;;4.80;2.10;;;;;;;12.85;72.85;99452.84;107331;1253;60448;-40
2023/06/12 04:14:45;;;;;;;2.90;1.80;;;;;;;12.86;72.73;99449.58;107357;1253;73846;-40
2023/06/12 04:17:13;;;;;;;3.40;1.90;;;;;;;12.91;72.52;99451.05;107323;1253;67873;-40
2023/06/12 04:19:41;;;;;;;3.40;2.30;;;;;;;12.93;72.00;99449.04;107396;1253;71393;-40
2023/06/12 04:22:12;;;;;;;5.70;1.90;;;;;;;12.91;71.89;99449.17;107233;1256;60408;-40
2023/06/12 04:24:45;;;;;;;3.80;2.20;;;;;;;12.90;71.95;99451.42;107412;1253;59689;-40
2023/06/12 04:27:13;;;;;;;8.50;2.40;;;;;;;12.92;71.98;99455.80;107425;1252;73928;-40
2023/06/12 04:29:42;;;;;;;4.90;2.10;;;;;;;12.97;71.56;99464.31;107429;1253;66937;-40
2023/06/12 04:32:14;;;;;;;3.00;1.90;;;;;;;12.98;71.27;99462.85;107515;1254;72658;-40
2023/06/12 04:34:43;;;;;;;6.40;2.00;;;;;;;13.00;71.91;99465.27;107323;1253;60524;-40
2023/06/12 04:37:13;;;;;;;;;;;;;;;13.03;71.53;99467.98;107511;1253;60323;-40
2023/06/12 04:39:42;;;;;;;5.70;2.10;;;;;;;13.02;71.63;99465.31;107366;1253;72574;-40
2023/06/12 04:42:10;;;;;;;2.40;1.80;;;;;;;13.08;71.40;99469.51;107460;1258;67676;-40
2023/06/12 04:44:39;;;;;;;4.00;2.10;;;;;;;13.19;71.31;99459.68;107444;1254;71409;-40
2023/06/12 04:47:11;;;;;;;7.90;2.20;;;;;;;13.29;71.37;99459.08;107479;1253;207561;-40
2023/06/12 04:50:28;;;;;;;5.40;2.30;;;;;;;13.38;70.07;99453.95;104060;1292;600589;-39
2023/06/12 04:52:57;;;;;;;6.90;2.30;;;;;;;13.39;69.36;99455.59;106565;1268;59332;-39
2023/06/12 04:55:28;;;;;;;6.20;2.10;;;;;;;13.41;69.65;99454.44;106650;1268;60128;-40
2023/06/12 04:57:58;;;;;;;8.20;1.90;;;;;;;13.50;69.48;99461.05;106655;1266;71615;-39
2023/06/12 05:00:28;;;;;;;5.70;2.30;;;;;;;13.56;69.47;99459.39;106705;1265;66747;-39
2023/06/12 05:02:58;;;;;;;4.30;2.20;;;;;;;13.61;68.84;99462.39;106412;1267;257593;-40
2023/06/12 05:05:27;;;;;;;5.40;2.00;;;;;;;13.64;68.36;99465.99;106666;1269;59187;-39
2023/06/12 05:07:56;;;;;;;5.60;2.20;;;;;;;13.68;68.62;99469.61;106757;1268;59292;-38
2023/06/12 05:10:23;;;;;;;3.60;2.00;;;;;;;13.74;68.29;99469.58;106897;1260;71187;-39
2023/06/12 05:12:51;;;;;;;5.10;2.50;;;;;;;13.85;67.70;99467.17;106991;1261;67555;-39
2023/06/12 05:15:19;;;;;;;4.00;1.90;;;;;;;13.96;67.03;99464.05;106992;1264;72465;-39
2023/06/12 05:17:46;;;;;;;4.90;2.20;;;;;;;14.03;66.65;99466.20;106984;1264;60150;-39
2023/06/12 05:20:15;;;;;;;4.00;2.30;;;;;;;14.09;66.51;99462.27;107028;1261;60139;-39
2023/06/12 05:22:43;;;;;;;4.30;1.90;;;;;;;14.12;65.59;99462.60;106960;1263;73018;-39
2023/06/12 05:25:11;;;;;;;7.00;2.30;;;;;;;14.14;66.11;99464.72;106684;1261;66300;-39
2023/06/12 05:27:39;;;;;;;6.00;2.20;;;;;;;14.21;65.76;99469.59;106874;1260;72706;-39
2023/06/12 05:30:09;;;;;;;12.90;2.30;;;;;;;14.28;65.78;99470.96;106997;1261;59672;-39
2023/06/12 05:32:38;;;;;;;2.70;1.80;;;;;;;14.34;64.92;99474.04;107035;1264;59762;-39
2023/06/12 05:35:07;;;;;;;6.70;1.90;;;;;;;14.37;64.26;99475.70;107045;1260;71753;-39
2023/06/12 05:37:35;;;;;;;4.70;2.10;;;;;;;14.38;63.83;99475.48;107076;1261;67873;-39
2023/06/12 05:40:05;;;;;;;3.80;2.30;;;;;;;14.36;63.60;99475.55;107008;1261;71510;-39
2023/06/12 05:42:34;;;;;;;4.40;2.00;;;;;;;14.34;63.52;99471.84;106948;1262;59618;-39
2023/06/12 05:45:03;;;;;;;4.70;2.30;;;;;;;14.37;63.76;99471.96;106980;1260;59508;-39
2023/06/12 05:47:32;;;;;;;5.60;1.90;;;;;;;14.44;63.64;99473.33;107072;1260;73053;-39
2023/06/12 05:50:04;;;;;;;5.50;2.10;;;;;;;14.49;63.46;99473.05;106904;1260;66272;-39
2023/06/12 05:52:32;;;;;;;3.40;2.00;;;;;;;14.54;63.22;99469.88;106946;1266;71814;-40
2023/06/12 05:54:59;;;;;;;4.40;2.20;;;;;;;14.59;62.98;99469.20;106997;1264;59963;-40
2023/06/12 05:57:30;;;;;;;6.90;2.50;;;;;;;14.60;62.70;99468.04;107021;1261;59707;-40
2023/06/12 05:59:58;;;;;;;4.50;2.00;;;;;;;14.60;62.39;99467.66;106887;1260;71793;-40
2023/06/12 06:02:26;;;;;;;3.30;2.10;;;;;;;14.59;62.41;99465.67;106902;1261;67604;-40
2023/06/12 06:04:54;;;;;;;5.10;1.70;;;;;;;14.59;62.53;99468.17;106860;1260;72733;-40
2023/06/12 06:07:22;;;;;;;6.20;1.90;;;;;;;14.67;63.18;99473.91;107084;1260;59622;-40
2023/06/12 06:09:50;;;;;;;11.00;2.30;;;;;;;14.76;62.49;99471.21;107001;1260;60055;-40
2023/06/12 06:12:18;;;;;;;5.80;2.30;;;;;;;14.80;61.97;99469.27;106791;1260;72818;-40
2023/06/12 06:14:46;;;;;;;4.80;2.10;;;;;;;14.84;62.11;99469.45;106991;1260;67970;-40
2023/06/12 06:17:14;;;;;;;5.50;2.40;;;;;;;14.85;61.44;99466.50;107016;1266;71812;-40
2023/06/12 06:19:42;;;;;;;3.70;2.10;;;;;;;14.84;61.53;99467.27;107092;1260;59372;-40
2023/06/12 06:22:11;;;;;;;8.30;2.30;;;;;;;14.81;61.66;99469.84;107014;1261;59900;-40
2023/06/12 06:24:38;;;;;;;4.80;2.00;;;;;;;14.81;61.87;99471.71;106906;1260;73038;-40
2023/06/12 06:27:06;;;;;;;3.60;1.80;;;;;;;14.82;62.21;99475.77;106900;1260;67910;-40
2023/06/12 06:29:35;;;;;;;6.10;2.30;;;;;;;14.90;61.91;99480.08;107006;1261;71434;-40
2023/06/12 06:32:03;;;;;;;3.40;2.30;;;;;;;14.98;61.66;99478.93;106986;1260;59745;-40
2023/06/12 06:34:34;;;;;;;3.30;2.00;;;;;;;15.03;60.75;99476.52;106893;1261;59669;-40
2023/06/12 06:37:02;;;;;;;4.70;2.50;;;;;;;15.03;60.54;99478.40;106803;1264;72175;-40
2023/06/12 06:39:30;;;;;;;5.80;2.20;;;;;;;15.02;60.16;99476.13;106879;1263;66978;-38
2023/06/12 06:41:58;;;;;;;4.00;2.10;;;;;;;14.99;60.09;99479.25;106787;1264;72669;-39
2023/06/12 06:44:26;;;;;;;6.50;2.20;;;;;;;14.95;59.67;99476.42;106821;1262;59483;-39
2023/06/12 06:46:54;;;;;;;3.00;2.00;;;;;;;14.91;60.10;99480.79;106897;1260;59965;-39
2023/06/12 06:49:22;;;;;;;7.70;2.40;;;;;;;14.87;59.87;99478.66;106856;1261;71031;-39
2023/06/12 06:51:50;;;;;;;4.20;2.10;;;;;;;14.85;59.95;99478.97;106958;1260;66601;-39
2023/06/12 06:54:18;;;;;;;8.10;2.40;;;;;;;14.85;60.12;99480.53;106789;1264;71434;-39
2023/06/12 06:56:47;;;;;;;4.50;2.00;;;;;;;14.85;60.11;99482.48;106947;1260;60107;-40
2023/06/12 06:59:15;;;;;;;5.20;2.30;;;;;;;14.88;60.66;99480.70;106974;1266;59564;-39
2023/06/12 07:01:42;;;;;;;7.50;2.10;;;;;;;14.97;60.22;99483.45;106770;1263;71845;-40
2023/06/12 07:04:11;;;;;;;4.40;2.00;;;;;;;15.05;59.87;99482.62;106802;1263;66323;-40
2023/06/12 07:06:40;;;;;;;5.70;2.40;;;;;;;15.10;59.26;99480.91;106731;1264;72747;-40
2023/06/12 07:09:08;;;;;;;6.10;2.20;;;;;;;15.13;59.28;99486.77;106774;1261;59751;-39
2023/06/12 07:11:36;;;;;;;6.00;2.60;;;;;;;15.13;59.23;99486.63;106782;1260;60337;-39
2023/06/12 07:14:04;;;;;;;3.90;2.30;;;;;;;15.14;59.23;99487.02;106901;1261;72835;-39
2023/06/12 07:16:32;;;;;;;8.60;2.40;;;;;;;15.12;59.05;99485.76;106874;1261;67687;-40
2023/06/12 07:19:00;;;;;;;5.30;2.70;;;;;;;15.08;59.47;99488.01;106873;1260;72708;-39
2023/06/12 07:21:28;;;;;;;6.70;2.50;;;;;;;15.05;59.85;99486.61;106930;1260;59689;-39
2023/06/12 07:23:55;;;;;;;10.40;3.00;;;;;;;15.03;60.04;99491.59;106871;1260;59596;-39
2023/06/12 07:26:24;;;;;;;5.10;2.20;;;;;;;15.02;60.50;99489.23;106996;1261;73049;-40
2023/06/12 07:28:59;;;;;;;5.00;2.30;;;;;;;15.03;60.46;99490.48;106931;1261;66637;-39
2023/06/12 07:31:28;;;;;;;5.70;2.30;;;;;;;15.10;60.46;99490.13;106883;1264;72689;-39
2023/06/12 07:33:56;;;;;;;2.60;2.10;;;;;;;15.16;59.87;99490.06;106979;1263;59639;-39
2023/06/12 07:36:25;;;;;;;7.30;2.50;;;;;;;15.19;60.60;99487.41;106965;1260;59160;-40
2023/06/12 07:38:53;;;;;;;8.20;2.20;;;;;;;15.25;60.12;99488.13;106765;1260;73054;-39
2023/06/12 07:41:22;;;;;;;3.60;2.20;;;;;;;15.29;59.19;99488.99;106977;1266;67910;-39
2023/06/12 07:43:51;;;;;;;4.60;2.50;;;;;;;15.30;58.58;99490.09;106936;1264;71433;-40
2023/06/12 07:46:19;;;;;;;8.00;2.90;;;;;;;15.27;58.86;99495.86;106973;1264;59624;-39
2023/06/12 07:48:47;;;;;;;4.00;2.10;;;;;;;15.22;58.71;99493.66;107043;1261;59503;-39
2023/06/12 07:51:16;;;;;;;7.90;2.40;;;;;;;15.19;59.39;99496.87;106857;1261;73038;-40
2023/06/12 07:53:44;;;;;;;9.40;2.40;;;;;;;15.16;59.39;99492.48;107027;1266;66308;-40
2023/06/12 07:56:16;;;;;;;6.30;2.30;;;;;;;15.17;59.58;99494.98;106916;1261;71119;-40
2023/06/12 07:58:45;;;;;;;6.80;2.00;;;;;;;15.16;59.31;99499.27;106957;1263;59618;-39
2023/06/12 08:01:13;;;;;;;5.30;2.00;;;;;;;15.13;59.42;99497.15;107028;1260;59225;-39
2023/06/12 08:03:43;;;;;;;5.20;2.40;;;;;;;15.14;59.43;99500.66;107053;1260;73059;-39
2023/06/12 08:06:12;;;;;;;3.30;2.20;;;;;;;15.14;59.26;99497.39;107003;1260;66271;-40
2023/06/12 08:08:45;;;;;;;6.20;1.80;;;;;;;15.15;59.14;99500.20;106919;1261;72702;-39
2023/06/12 08:11:13;;;;;;;3.70;1.70;;;;;;;15.22;59.08;99497.33;106929;1260;61705;-39
2023/06/12 08:13:44;;;;;;;6.50;2.10;;;;;;;15.30;59.06;99496.33;106977;1261;60069;-39
2023/06/12 08:16:12;;;;;;;3.80;2.10;;;;;;;15.41;59.15;99499.55;107019;1260;71814;-39
2023/06/12 08:18:41;;;;;;;5.80;2.30;;;;;;;15.54;58.53;99498.81;107019;1260;67794;-39
2023/06/12 08:21:10;;;;;;;3.00;2.20;;;;;;;15.67;58.49;99500.23;107010;1263;72701;-39
2023/06/12 08:23:38;;;;;;;6.40;2.30;;;;;;;15.80;58.84;99498.13;106891;1261;59250;-39
2023/06/12 08:26:08;;;;;;;6.00;2.20;;;;;;;15.95;57.68;99499.06;106971;1260;60036;-40
2023/06/12 08:28:37;;;;;;;3.20;2.30;;;;;;;16.05;57.30;99495.30;106868;1266;71319;-39
2023/06/12 08:31:09;;;;;;;3.40;2.40;;;;;;;16.13;56.10;99497.09;106940;1260;68030;-39
2023/06/12 08:33:39;;;;;;;5.60;2.20;;;;;;;16.14;56.02;99496.70;106880;1263;72674;-39
2023/06/12 08:36:06;;;;;;;5.30;2.10;;;;;;;16.15;56.89;99494.27;106927;1266;59473;-39
2023/06/12 08:38:34;;;;;;;3.50;2.30;;;;;;;16.18;56.80;99494.73;106882;1261;59611;-39
2023/06/12 08:41:09;;;;;;;4.40;2.50;;;;;;;16.21;56.79;99493.88;106890;1266;71789;-40
2023/06/12 08:43:48;;;;;;;2.80;2.30;;;;;;;16.23;56.70;99493.39;107021;1266;66396;-40
2023/06/12 08:46:46;;;;;;;4.50;2.80;;;;;;;16.26;57.35;99490.82;106741;1260;74074;-40
2023/06/12 08:49:15;;;;;;;4.10;2.50;;;;;;;16.27;56.65;99489.17;106662;1269;60128;-40
2023/06/12 08:51:43;;;;;;;4.70;2.70;;;;;;;16.28;56.54;99495.49;106740;1260;61808;-40
2023/06/12 08:54:11;;;;;;;12.10;2.60;;;;;;;16.26;56.28;99490.27;106675;1261;73062;-40
2023/06/12 08:56:39;;;;;;;4.70;2.60;;;;;;;16.24;56.77;99488.70;107068;1263;66612;-40
2023/06/12 08:59:06;;;;;;;4.70;2.20;;;;;;;16.24;57.05;99483.30;106956;1257;72733;-40
2023/06/12 09:01:36;;;;;;;6.10;2.50;;;;;;;16.30;57.50;99492.13;107169;1257;60655;-40
2023/06/12 09:04:07;;;;;;;4.50;2.30;;;;;;;16.36;57.53;99485.79;107001;1257;60443;-40
2023/06/12 09:06:37;;;;;;;7.90;2.60;;;;;;;16.38;56.63;99488.91;107319;1257;72563;-40
2023/06/12 09:09:06;;;;;;;6.90;2.70;;;;;;;16.36;56.71;99484.63;107058;1263;66634;-40
2023/06/12 09:11:36;;;;;;;4.80;2.70;;;;;;;16.35;56.72;99481.89;107170;1257;72791;-40
2023/06/12 09:14:04;;;;;;;5.60;2.40;;;;;;;16.33;56.73;99473.84;107229;1257;60171;-40
2023/06/12 09:16:32;;;;;;;5.50;2.50;;;;;;;16.33;57.47;99477.35;107248;1256;60833;-40
2023/06/12 09:19:00;;;;;;;5.60;2.50;;;;;;;16.37;57.96;99476.09;107170;1257;72744;-40
2023/06/12 09:21:31;;;;;;;3.80;2.20;;;;;;;16.42;57.76;99473.58;107277;1254;65843;-39
2023/06/12 09:24:02;;;;;;;4.80;2.80;;;;;;;16.48;57.77;99478.64;107204;1260;73944;-39
2023/06/12 09:26:30;;;;;;;8.00;2.60;;;;;;;16.52;57.15;99478.16;107357;1256;60382;-39
2023/06/12 09:28:57;;;;;;;4.20;2.60;;;;;;;16.56;57.43;99480.27;107264;1254;60396;-39
2023/06/12 09:31:25;;;;;;;7.00;2.50;;;;;;;16.62;58.20;99477.44;107275;1254;73856;-40
2023/06/12 09:33:53;;;;;;;4.30;2.60;;;;;;;16.69;57.85;99478.98;107284;1254;67671;-40
2023/06/12 09:36:21;;;;;;;9.20;2.70;;;;;;;16.75;57.05;99477.64;107261;1254;71205;-42
2023/06/12 09:38:50;;;;;;;6.80;2.50;;;;;;;16.76;56.90;99477.70;107225;1254;60428;-41
2023/06/12 09:41:21;;;;;;;4.70;2.60;;;;;;;16.80;57.58;99476.83;107262;1260;59790;-40
2023/06/12 09:43:52;;;;;;;3.60;2.50;;;;;;;16.84;57.09;99480.80;107441;1254;73928;-39
2023/06/12 09:46:24;;;;;;;5.70;2.90;;;;;;;16.82;56.64;99483.94;107527;1254;67852;-39
2023/06/12 09:48:54;;;;;;;4.50;2.70;;;;;;;16.81;56.96;99483.39;107455;1254;71380;-40
2023/06/12 09:51:23;;;;;;;6.90;2.90;;;;;;;16.80;57.17;99488.32;107388;1258;61091;-39
2023/06/12 09:53:51;;;;;;;9.30;2.80;;;;;;;16.81;57.28;99480.65;107521;1254;60123;-39
2023/06/12 09:56:18;;;;;;;10.00;3.10;;;;;;;16.83;57.14;99480.02;107327;1254;73413;-39
2023/06/12 09:58:47;;;;;;;6.50;2.60;;;;;;;16.85;57.34;99479.23;107296;1256;66288;-39
2023/06/12 10:01:17;;;;;;;3.50;2.70;;;;;;;16.87;57.35;99485.56;107365;1254;72711;-39
2023/06/12 10:03:46;;;;;;;5.60;2.70;;;;;;;16.88;57.15;99483.29;107227;1254;60395;-39
2023/06/12 10:06:14;;;;;;;5.60;2.60;;;;;;;16.91;57.05;99483.73;107330;1253;60396;-39
2023/06/12 10:08:42;;;;;;;5.50;2.70;;;;;;;16.94;57.47;99490.53;107310;1260;75972;-39
2023/06/12 10:11:11;;;;;;;5.60;2.60;;;;;;;17.00;57.81;99495.52;107392;1254;67574;-39
2023/06/12 10:13:39;;;;;;;8.70;2.40;;;;;;;17.07;57.95;99492.44;107318;1255;72729;-39
2023/06/12 10:16:07;;;;;;;8.20;2.50;;;;;;;17.15;57.47;99494.19;107321;1254;60418;-39
2023/06/12 10:18:35;;;;;;;7.50;2.50;;;;;;;17.21;57.40;99502.21;107373;1254;60431;-39
2023/06/12 10:21:02;;;;;;;3.80;2.70;;;;;;;17.24;56.86;99501.25;107372;1254;73823;-39
2023/06/12 10:23:30;;;;;;;4.40;2.60;;;;;;;17.27;57.00;99500.98;107219;1254;67590;-39
2023/06/12 10:26:02;;;;;;;5.60;2.90;;;;;;;17.31;56.86;99506.00;107332;1254;74537;-39
2023/06/12 10:28:29;;;;;;;7.10;2.30;;;;;;;17.34;56.94;99501.04;107378;1254;60270;-39
2023/06/12 10:31:19;;;;;;;4.90;2.40;;;;;;;17.38;57.14;99500.86;107320;1254;60290;-39
2023/06/12 10:34:04;;;;;;;;;;;;;;;17.46;57.38;99499.79;107062;1262;73887;-40
2023/06/12 10:36:47;;;;;;;5.30;2.50;;;;;;;17.42;57.32;99497.39;107459;1254;67563;-40
2023/06/12 10:39:24;;;;;;;10.70;2.40;;;;;;;17.38;57.04;99493.56;107298;1256;70888;-40
2023/06/12 10:41:58;;;;;;;4.70;2.50;;;;;;;17.34;56.97;99491.48;107321;1254;59549;-40
2023/06/12 10:44:36;;;;;;;5.00;2.40;;;;;;;17.31;57.37;99491.05;107388;1254;60428;-40
2023/06/12 10:47:04;;;;;;;5.60;2.50;;;;;;;17.28;57.23;99491.27;107362;1254;73921;-40
2023/06/12 10:49:55;;;;;;;4.20;2.40;;;;;;;17.22;57.05;99492.90;107383;1259;67584;-40
2023/06/12 10:52:22;;;;;;;5.70;2.30;;;;;;;17.14;56.96;99494.27;107427;1256;71498;-40
2023/06/12 10:55:20;;;;;;;4.70;2.50;;;;;;;17.04;56.99;99497.45;107371;1257;60399;-40
2023/06/12 10:57:53;;;;;;;8.30;2.30;;;;;;;16.95;57.35;99501.80;107257;1254;60425;-40
2023/06/12 11:00:32;;;;;;;4.10;2.70;;;;;;;16.85;57.80;99503.95;107463;1254;73914;-40
2023/06/12 11:03:03;;;;;;;6.70;2.50;;;;;;;16.81;58.37;99501.45;107512;1254;66259;-40
2023/06/12 11:05:31;;;;;;;5.00;2.60;;;;;;;16.79;58.35;99502.58;107436;1254;72798;-40
2023/06/12 11:08:03;;;;;;;4.80;2.20;;;;;;;16.74;58.03;99501.42;107429;1256;60402;-40
2023/06/12 11:10:32;;;;;;;6.00;2.80;;;;;;;16.72;58.34;99502.91;107563;1254;60418;-40
2023/06/12 11:13:00;;;;;;;4.00;2.60;;;;;;;16.72;58.25;99500.48;107533;1259;73026;-40
2023/06/12 11:15:28;;;;;;;7.00;2.50;;;;;;;16.77;58.81;99501.09;107494;1258;66291;-40
2023/06/12 11:17:55;;;;;;;4.40;2.60;;;;;;;16.83;57.87;99505.76;107498;1254;72651;-40
2023/06/12 11:20:24;;;;;;;7.90;2.50;;;;;;;16.86;57.82;99511.54;107522;1254;60284;-40
2023/06/12 11:23:01;;;;;;;5.50;2.50;;;;;;;16.83;57.63;99508.13;107425;1256;60237;-40
2023/06/12 11:25:56;;;;;;;5.80;2.30;;;;;;;16.78;57.90;99512.05;107424;1254;73478;-40
2023/06/12 11:28:24;;;;;;;3.80;2.20;;;;;;;16.69;58.16;99516.92;107403;1254;67906;-40
2023/06/12 11:30:56;;;;;;;4.20;2.20;;;;;;;16.60;58.75;99522.04;107419;1254;72679;-41
2023/06/12 11:33:38;;;;;;;3.10;2.30;;;;;;;16.52;59.00;99522.89;107404;1254;60401;-40
2023/06/12 11:36:06;;;;;;;4.10;2.20;;;;;;;16.46;59.03;99521.88;107411;1254;60460;-40
2023/06/12 11:38:35;;;;;;;6.80;2.50;;;;;;;16.41;59.34;99527.91;107486;1254;72550;-40